Time;durP1;ratioP1;P1;durP2;ratioP2;P2;SDS_P1;SDS_P2;PMS_P1;PMS_P2;Temp;Humidity;BMP_temperature;BMP_pressure;BME280_temperature;BME280_humidity;BME280_pressure;Samples;Min_cycle;Max_cycle;Signal;HPM_P1;HPM_P2
2022/05/14 10:15:30;;;;;;;;;3.40;3.40;;;;;26.88;28.16;101525.28;5661597;22;45570;-60
2022/05/14 10:18:14;;;;;;;;;3.50;3.50;;;;;26.70;28.60;101517.28;5070929;27;45649;-63
2022/05/14 10:20:50;;;;;;;;;6.80;5.20;;;;;26.08;28.76;101515.88;5071504;27;45434;-63
2022/05/14 10:26:50;;;;;;;;;3.80;3.80;;;;;24.79;30.46;101516.66;5076774;27;45409;-63
2022/05/14 10:29:43;;;;;;;;;2.00;2.00;;;;;24.50;30.85;101528.63;5091830;27;45169;-64
2022/05/14 10:32:15;;;;;;;;;6.00;5.25;;;;;24.55;31.47;101526.28;5082145;27;46068;-63
2022/05/14 10:35:05;;;;;;;;;4.00;4.00;;;;;24.44;31.81;101520.22;5085902;27;45384;-62
2022/05/14 10:37:32;;;;;;;;;7.00;4.25;;;;;24.34;31.94;101518.41;5080868;27;45350;-71
2022/05/14 10:40:16;;;;;;;;;5.50;5.50;;;;;24.38;31.92;101513.53;5101331;27;45645;-70
2022/05/14 10:42:53;;;;;;;;;6.75;5.50;;;;;24.29;31.93;101518.00;5082824;27;45543;-63
2022/05/14 10:45:41;;;;;;;;;6.00;4.25;;;;;24.10;32.10;101502.66;5082861;27;45213;-65
2022/05/14 10:48:27;;;;;;;;;6.00;5.25;;;;;23.97;32.14;101506.75;5086537;27;45438;-61
2022/05/14 10:50:53;;;;;;;;;5.50;4.00;;;;;23.81;32.76;101500.06;5084885;27;44897;-65
2022/05/14 10:53:19;;;;;;;;;4.50;4.50;;;;;23.85;32.76;101500.66;5082128;27;45831;-68
2022/05/14 10:56:06;;;;;;;;;5.75;5.00;;;;;23.84;32.56;101498.94;5083195;27;45237;-70
2022/05/14 10:58:42;;;;;;;;;1.00;1.00;;;;;23.84;33.10;101498.94;5082660;27;45288;-71
2022/05/14 11:01:25;;;;;;;;;4.00;4.00;;;;;23.86;32.69;101491.50;5086371;27;45082;-62
2022/05/14 11:03:58;;;;;;;;;4.00;4.00;;;;;23.84;32.26;101498.94;5086774;27;46225;-64
2022/05/14 11:06:32;;;;;;;;;6.50;5.00;;;;;23.91;32.50;101497.31;5079712;28;45345;-65
2022/05/14 11:08:59;;;;;;;;;6.00;5.00;;;;;23.97;32.56;101487.72;5080872;27;45593;-68
2022/05/14 11:11:29;;;;;;;;;3.25;3.25;;;;;23.87;31.82;101487.78;5081147;27;45768;-67
2022/05/14 11:14:21;;;;;;;;;6.75;6.00;;;;;23.78;32.35;101484.09;5081742;27;46077;-64
2022/05/14 11:16:50;;;;;;;;;4.00;4.00;;;;;23.94;32.79;101483.44;5080744;28;45795;-65
2022/05/14 11:19:24;;;;;;;;;4.50;4.00;;;;;24.06;32.06;101482.22;5089256;27;44837;-63
2022/05/14 11:21:50;;;;;;;;;8.00;6.25;;;;;24.10;31.86;101470.06;5084072;27;45702;-61
2022/05/14 11:24:16;;;;;;;;;6.00;6.00;;;;;24.20;31.71;101475.41;5077070;27;46213;-61
2022/05/14 11:26:53;;;;;;;;;5.25;4.75;;;;;24.26;31.94;101473.97;5079964;28;45484;-62
2022/05/14 11:29:23;;;;;;;;;6.25;6.00;;;;;24.36;31.82;101474.78;5073016;27;45535;-66
2022/05/14 11:32:09;;;;;;;;;8.25;6.75;;;;;24.32;31.62;101476.06;5092433;27;45740;-70
2022/05/14 11:34:35;;;;;;;;;4.25;3.00;;;;;24.28;31.69;101469.22;5085190;27;45236;-63
2022/05/14 11:37:04;;;;;;;;;6.25;6.25;;;;;24.39;31.13;101469.03;5082250;27;45413;-59
2022/05/14 11:39:36;;;;;;;;;4.25;4.25;;;;;24.47;31.33;101458.22;5079212;27;45527;-68
2022/05/14 11:42:25;;;;;;;;;7.00;5.00;;;;;24.56;30.90;101464.59;5076198;28;45811;-66
2022/05/14 11:44:55;;;;;;;;;6.25;4.50;;;;;24.62;31.54;101459.41;5079613;27;46002;-61
2022/05/14 11:47:55;;;;;;;;;4.75;4.75;;;;;24.64;30.60;101459.25;5081698;27;45417;-68
2022/05/14 11:50:27;;;;;;;;;7.25;7.25;;;;;24.62;31.18;101458.56;5084902;27;45270;-62
2022/05/14 11:53:14;;;;;;;;;6.50;4.00;;;;;24.65;30.93;101461.81;5082499;27;45507;-62
2022/05/14 11:55:48;;;;;;;;;4.50;4.50;;;;;24.74;31.37;101464.56;5089933;27;45997;-65
2022/05/14 11:58:25;;;;;;;;;7.00;6.00;;;;;24.69;30.66;101455.03;5120883;27;44826;-62
2022/05/14 12:00:53;;;;;;;;;8.50;6.25;;;;;24.70;30.08;101455.88;5096859;27;46156;-65
2022/05/14 12:03:30;;;;;;;;;6.00;6.00;;;;;24.50;30.85;101448.91;5071469;28;45503;-65
2022/05/14 12:06:03;;;;;;;;;5.50;5.50;;;;;24.56;31.07;101451.84;5082502;27;45476;-65
2022/05/14 12:08:54;;;;;;;;;6.00;6.00;;;;;24.58;31.20;101452.53;5082947;27;45247;-67
2022/05/14 12:11:38;;;;;;;;;7.25;6.00;;;;;24.69;31.09;101451.47;5086372;27;45491;-71
2022/05/14 12:14:18;;;;;;;;;6.25;5.00;;;;;24.76;31.18;101457.13;5090281;28;45199;-69
2022/05/14 12:16:51;;;;;;;;;6.75;6.75;;;;;24.81;31.44;101449.34;5099740;27;45221;-65
2022/05/14 12:19:21;;;;;;;;;7.75;6.75;;;;;24.64;31.11;101449.22;5096547;27;44814;-62
2022/05/14 12:21:59;;;;;;;;;6.50;6.50;;;;;24.68;31.52;101438.88;5092575;27;45854;-64
2022/05/14 12:24:28;;;;;;;;;5.25;5.25;;;;;24.73;30.58;101432.94;5086818;27;45397;-63
2022/05/14 12:26:55;;;;;;;;;7.25;7.00;;;;;24.88;30.82;101434.13;5090745;27;46446;-69
2022/05/14 12:29:51;;;;;;;;;4.50;4.50;;;;;25.02;30.63;101419.09;5095187;28;44903;-62
2022/05/14 12:35:00;;;;;;;;;6.50;4.25;;;;;25.39;29.48;101410.63;5074171;27;45542;-67
2022/05/14 12:37:37;;;;;;;;;7.25;6.75;;;;;25.49;28.94;101403.19;5100725;27;46168;-66
2022/05/14 12:40:02;;;;;;;;;5.25;3.75;;;;;25.42;29.60;101410.31;5080850;27;45538;-65
2022/05/14 12:42:36;;;;;;;;;6.25;6.25;;;;;25.44;29.82;101408.28;5080767;28;46810;-64
2022/05/14 12:45:04;;;;;;;;;6.25;5.25;;;;;25.44;29.77;101409.13;5079862;27;45855;-64
2022/05/14 12:47:32;;;;;;;;;4.25;4.25;;;;;25.62;29.14;101403.59;5077704;28;46227;-70
2022/05/14 12:49:58;;;;;;;;;5.00;5.00;;;;;25.79;29.19;101405.41;5086303;27;45406;-64
2022/05/14 12:52:31;;;;;;;;;4.75;3.50;;;;;25.91;29.04;101395.03;5093850;27;45483;-57
2022/05/14 12:55:11;;;;;;;;;5.00;4.50;;;;;25.95;29.65;101396.41;5095393;27;45760;-57
2022/05/14 12:57:39;;;;;;;;;6.25;6.25;;;;;25.98;28.71;101401.53;5100256;27;46392;-57
2022/05/14 13:00:07;;;;;;;;;5.75;5.75;;;;;26.00;28.85;101393.19;5063409;28;45500;-58
2022/05/14 13:02:41;;;;;;;;;5.50;4.75;;;;;26.10;28.51;101388.44;5080573;28;45508;-57
2022/05/14 13:05:18;;;;;;;;;4.75;4.75;;;;;26.28;28.50;101386.41;5091854;28;45322;-62
2022/05/14 13:08:10;;;;;;;;;7.25;7.25;;;;;26.34;28.15;101379.44;5083841;27;45187;-62
2022/05/14 13:10:37;;;;;;;;;8.20;5.20;;;;;26.13;27.42;101371.75;5076490;27;45282;-63
2022/05/14 13:13:07;;;;;;;;;6.20;5.60;;;;;26.17;27.90;101367.66;5078374;27;45201;-64
2022/05/14 13:15:38;;;;;;;;;7.00;5.50;;;;;26.26;27.90;101361.19;5061342;27;45515;-64
2022/05/14 13:18:21;;;;;;;;;4.00;4.00;;;;;26.47;27.78;101368.06;5061529;28;46360;-65
2022/05/14 13:20:47;;;;;;;;;7.20;5.80;;;;;26.65;27.51;101366.84;5065221;28;45340;-63
2022/05/14 13:23:19;;;;;;;;;4.60;4.60;;;;;26.73;27.24;101361.38;5066130;28;45224;-63
2022/05/14 13:25:55;;;;;;;;;4.00;4.00;;;;;26.92;27.58;101357.41;5081937;28;45426;-62
2022/05/14 13:28:26;;;;;;;;;4.20;4.20;;;;;27.08;26.94;101358.44;5079965;28;45412;-62
2022/05/14 13:30:52;;;;;;;;;5.80;5.80;;;;;27.10;26.47;101342.75;5084056;28;45838;-62
2022/05/14 13:33:38;;;;;;;;;4.00;4.00;;;;;27.10;26.73;101359.13;5077028;28;45259;-63
2022/05/14 13:38:57;;;;;;;;;5.00;5.00;;;;;27.39;26.73;101340.25;5060156;28;45891;-63
2022/05/14 13:41:27;;;;;;;;;4.40;4.40;;;;;27.41;26.34;101345.53;5060494;28;45291;-63
2022/05/14 13:43:57;;;;;;;;;5.80;5.80;;;;;27.26;25.83;101343.53;5060361;28;45223;-64
2022/05/14 13:46:28;;;;;;;;;6.75;5.50;;;;;27.23;25.72;101337.59;5066049;28;45551;-62
2022/05/14 13:48:55;;;;;;;;;4.20;4.00;;;;;27.21;26.36;101328.69;5071837;28;45609;-63
2022/05/14 13:51:28;;;;;;;;;4.60;4.60;;;;;27.24;25.64;101339.28;5068601;28;45499;-63
2022/05/14 13:54:15;;;;;;;;;4.00;4.00;;;;;27.26;25.88;101331.75;5066025;28;45245;-64
2022/05/14 13:56:44;;;;;;;;;5.00;5.00;;;;;27.16;26.30;101336.56;5066932;28;45341;-63
2022/05/14 13:59:27;;;;;;;;;5.00;5.00;;;;;27.07;26.96;101332.16;5060552;28;45430;-61
2022/05/14 14:02:07;;;;;;;;;5.00;5.00;;;;;27.19;26.66;101333.47;5074563;28;45269;-64
2022/05/14 14:04:33;;;;;;;;;6.40;6.40;;;;;27.21;26.13;101320.50;5059869;28;45393;-64
2022/05/14 14:07:02;;;;;;;;;5.00;5.00;;;;;27.36;25.49;101316.00;5077821;28;45241;-68
2022/05/14 14:09:28;;;;;;;;;4.00;4.00;;;;;27.50;25.45;101326.19;5087255;27;45417;-68
2022/05/14 14:11:54;;;;;;;;;7.00;5.60;;;;;27.54;25.17;101322.06;5087581;27;45289;-64
2022/05/14 14:14:20;;;;;;;;;5.75;5.75;;;;;27.43;25.72;101322.44;5086876;28;45426;-63
2022/05/14 14:16:46;;;;;;;;;4.50;4.50;;;;;27.41;25.31;101320.94;5084546;28;45375;-62
2022/05/14 14:19:12;;;;;;;;;4.40;4.40;;;;;27.38;25.33;101324.03;5080886;27;46234;-62
2022/05/14 14:21:38;;;;;;;;;5.50;4.75;;;;;27.46;26.04;101316.63;5080615;27;45538;-62
2022/05/14 14:24:09;;;;;;;;;3.80;3.80;;;;;27.54;26.28;101315.75;5084817;27;45364;-66
2022/05/14 14:26:35;;;;;;;;;5.40;4.60;;;;;27.55;25.57;101309.25;5087468;27;45365;-64
2022/05/14 14:29:01;;;;;;;;;6.00;6.00;;;;;27.60;25.94;101312.28;5087391;27;46100;-65
2022/05/14 14:31:27;;;;;;;;;4.40;4.40;;;;;27.47;25.87;101293.75;5087841;27;45254;-66
2022/05/14 14:33:52;;;;;;;;;5.50;5.50;;;;;27.56;25.55;101298.13;5085816;27;45257;-65
2022/05/14 14:36:18;;;;;;;;;5.00;5.00;;;;;27.54;25.07;101297.47;5083846;27;45688;-65
2022/05/14 14:38:44;;;;;;;;;6.25;6.25;;;;;27.44;26.21;101296.84;5083311;27;45262;-64
2022/05/14 14:41:10;;;;;;;;;6.40;4.80;;;;;27.47;25.95;101301.94;5085133;27;45421;-63
2022/05/14 14:43:36;;;;;;;;;6.80;6.80;;;;;27.56;25.10;101300.00;5088767;28;45462;-63
2022/05/14 14:46:07;;;;;;;;;5.00;4.00;;;;;27.58;25.54;101293.34;5102569;27;45450;-63
2022/05/14 14:48:37;;;;;;;;;4.60;4.60;;;;;27.62;24.86;101288.38;5081861;28;45346;-62
2022/05/14 14:51:07;;;;;;;;;4.60;3.00;;;;;27.68;25.17;101281.38;5081592;27;45281;-63
2022/05/14 14:53:33;;;;;;;;;4.40;4.40;;;;;27.44;25.42;101272.25;5080212;27;45768;-62
2022/05/14 14:55:59;;;;;;;;;4.80;4.80;;;;;27.71;25.06;101270.06;5082503;27;45931;-63
2022/05/14 14:58:25;;;;;;;;;6.00;5.00;;;;;27.73;24.75;101254.34;5083316;27;45693;-64
2022/05/14 15:00:51;;;;;;;;;3.75;3.75;;;;;27.76;24.89;101268.50;5080594;28;45867;-64
2022/05/14 15:03:26;;;;;;;;;4.00;3.00;;;;;27.48;25.11;101259.94;5080903;27;45438;-70
2022/05/14 15:05:54;;;;;;;;;4.60;4.60;;;;;27.41;25.01;101258.97;5080663;27;45282;-71
2022/05/14 15:08:26;;;;;;;;;11.00;8.75;;;;;27.46;25.76;101267.44;5080913;27;46938;-64
2022/05/14 15:10:53;;;;;;;;;10.40;7.00;;;;;27.63;25.10;101271.81;5095756;28;45200;-62
2022/05/14 15:13:22;;;;;;;;;8.20;7.00;;;;;27.75;25.03;101261.34;5093935;27;45478;-62
2022/05/14 15:15:47;;;;;;;;;5.80;5.00;;;;;27.68;25.07;101259.50;5095249;27;44855;-62
2022/05/14 15:18:13;;;;;;;;;6.00;6.00;;;;;27.54;25.88;101264.69;5094456;27;45264;-62
2022/05/14 15:20:39;;;;;;;;;9.00;6.25;;;;;27.44;25.81;101261.31;5093724;28;44631;-62
2022/05/14 15:23:06;;;;;;;;;6.60;5.60;;;;;27.38;26.04;101255.75;5092722;27;45256;-64
2022/05/14 15:25:32;;;;;;;;;4.80;4.60;;;;;27.34;25.59;101249.75;5094278;28;44799;-65
2022/05/14 15:27:57;;;;;;;;;9.75;9.75;;;;;27.47;25.88;101250.03;5095616;27;45172;-63
2022/05/14 15:30:23;;;;;;;;;5.00;5.00;;;;;27.45;25.81;101252.09;5093810;28;45522;-71
2022/05/14 15:32:48;;;;;;;;;4.00;4.00;;;;;27.40;25.28;101250.94;5093822;27;44704;-67
2022/05/14 15:35:13;;;;;;;;;3.00;2.25;;;;;27.30;25.51;101238.34;5092907;28;45416;-63
2022/05/14 15:37:40;;;;;;;;;6.00;5.75;;;;;27.16;25.91;101243.72;5092989;27;45562;-63
2022/05/14 15:40:08;;;;;;;;;3.80;3.80;;;;;27.02;26.40;101242.59;5092416;27;44761;-64
2022/05/14 15:42:53;;;;;;;;;6.40;4.00;;;;;26.93;26.21;101244.47;5086774;28;45858;-62
2022/05/14 15:45:25;;;;;;;;;6.50;4.25;;;;;26.97;26.26;101248.56;5096075;27;45009;-64
2022/05/14 15:47:52;;;;;;;;;5.80;5.80;;;;;27.03;26.24;101250.59;5085915;27;45279;-67
2022/05/14 15:50:23;;;;;;;;;7.00;5.00;;;;;27.08;25.94;101241.03;5089316;27;45299;-59
2022/05/14 15:52:49;;;;;;;;;3.80;3.80;;;;;27.01;25.84;101243.63;5078844;27;44845;-54
2022/05/14 15:55:19;;;;;;;;;5.50;5.00;;;;;26.90;26.22;101238.53;5093766;27;45433;-56
2022/05/14 15:57:45;;;;;;;;;6.80;4.60;;;;;26.81;27.11;101234.97;5094574;27;46226;-60
2022/05/14 16:00:14;;;;;;;;;2.00;2.00;;;;;26.66;26.62;101220.34;5090129;27;45315;-54
2022/05/14 16:02:41;;;;;;;;;4.00;3.40;;;;;26.55;27.38;101226.19;5083583;27;45429;-57
2022/05/14 16:05:07;;;;;;;;;3.25;3.25;;;;;26.43;26.94;101225.69;5072436;28;45683;-62
2022/05/14 16:07:34;;;;;;;;;2.20;2.20;;;;;26.38;27.14;101234.41;5069578;28;48633;-62
2022/05/14 16:18:13;;;;;;;;;3.00;3.00;;;;;26.14;27.85;101224.34;5078713;28;45783;-58
2022/05/14 16:20:38;;;;;;;;;5.50;4.25;;;;;26.00;28.64;101222.31;5062083;28;45252;-58
2022/05/14 16:23:04;;;;;;;;;5.25;5.25;;;;;26.01;28.46;101220.44;5079750;28;45382;-57
2022/05/14 16:25:29;;;;;;;;;4.25;4.25;;;;;26.08;28.20;101224.19;5085185;27;45332;-57
2022/05/14 16:27:54;;;;;;;;;4.75;4.25;;;;;26.04;28.35;101214.66;5082043;27;46116;-57
2022/05/14 16:30:20;;;;;;;;;4.00;4.00;;;;;25.96;28.68;101222.84;5083158;27;45311;-62
2022/05/14 16:32:47;;;;;;;;;4.00;4.00;;;;;25.92;28.51;101216.91;5074253;27;45519;-57
2022/05/14 16:35:13;;;;;;;;;3.50;2.75;;;;;25.82;28.70;101214.31;5090788;27;45430;-55
2022/05/14 16:37:39;;;;;;;;;3.50;3.50;;;;;25.67;28.99;101209.69;5093367;27;47145;-57
2022/05/14 16:40:06;;;;;;;;;4.00;4.00;;;;;25.62;29.43;101210.19;5091590;27;45479;-59
2022/05/14 16:42:32;;;;;;;;;4.40;4.40;;;;;25.59;29.12;101210.53;5095500;27;45611;-58
2022/05/14 16:44:57;;;;;;;;;5.25;5.25;;;;;25.55;29.43;101210.03;5071591;28;45603;-57
2022/05/14 16:47:22;;;;;;;;;4.00;4.00;;;;;25.42;30.00;101204.22;5081903;28;45621;-58
2022/05/14 16:49:48;;;;;;;;;4.00;4.00;;;;;25.31;30.06;101206.41;5076496;28;45527;-57
2022/05/14 16:52:15;;;;;;;;;38.33;36.00;;;;;25.35;29.99;101196.88;5084462;28;45358;-57
2022/05/14 16:54:41;;;;;;;;;9.50;8.00;;;;;25.28;30.40;101200.28;5082924;27;45375;-57
2022/05/14 16:57:07;;;;;;;;;7.00;5.00;;;;;25.22;30.40;101200.06;5079240;28;46946;-58
2022/05/14 16:59:36;;;;;;;;;5.75;4.50;;;;;25.09;30.75;101192.38;5080714;28;45453;-59
2022/05/14 17:02:03;;;;;;;;;4.00;4.00;;;;;25.01;30.56;101189.66;5097965;27;46146;-59
2022/05/14 17:04:29;;;;;;;;;4.00;4.00;;;;;24.89;30.88;101194.50;5083266;27;45517;-60
2022/05/14 17:06:54;;;;;;;;;4.00;4.00;;;;;24.84;31.34;101190.56;5080959;27;45398;-57
2022/05/14 17:09:20;;;;;;;;;3.00;2.75;;;;;24.79;31.04;101190.22;5078457;27;45321;-60
2022/05/14 17:11:45;;;;;;;;;5.25;4.00;;;;;24.82;31.08;101196.19;5081132;27;45515;-69
2022/05/14 17:14:10;;;;;;;;;5.75;4.00;;;;;24.86;31.24;101196.69;5085216;28;45256;-66
2022/05/14 17:16:36;;;;;;;;;5.25;4.25;;;;;24.88;31.38;101189.25;5071191;27;46487;-64
2022/05/14 17:19:01;;;;;;;;;4.00;4.00;;;;;24.84;31.22;101193.28;5065552;28;45333;-66
2022/05/14 17:21:27;;;;;;;;;3.00;3.00;;;;;24.78;31.43;101189.38;5067293;28;45472;-65
2022/05/14 17:23:52;;;;;;;;;4.00;4.00;;;;;24.83;31.46;101197.03;5078288;27;45314;-69
2022/05/14 17:26:18;;;;;;;;;3.75;3.00;;;;;24.76;31.39;101191.41;5082628;27;46508;-68
2022/05/14 17:28:43;;;;;;;;;5.75;4.50;;;;;24.80;31.27;101191.91;5092064;28;45346;-74
2022/05/14 17:31:09;;;;;;;;;6.25;4.75;;;;;24.74;31.52;101187.13;5095140;28;45362;-72
2022/05/14 17:33:34;;;;;;;;;3.25;3.00;;;;;24.59;31.50;101190.44;5100318;28;44937;-67
2022/05/14 17:36:00;;;;;;;;;5.00;4.00;;;;;24.60;31.68;101192.16;5094073;27;45445;-68
2022/05/14 17:41:09;;;;;;;;;3.00;3.00;;;;;24.50;32.16;101185.16;5085953;27;45607;-68
2022/05/14 17:43:35;;;;;;;;;4.00;4.00;;;;;24.53;32.15;101182.97;5086254;27;45336;-67
2022/05/14 17:46:00;;;;;;;;;4.50;4.50;;;;;24.53;31.90;101180.25;5096017;27;46118;-66
2022/05/14 17:48:26;;;;;;;;;4.50;4.50;;;;;24.43;32.06;101179.50;5076359;27;45957;-69
2022/05/14 17:50:51;;;;;;;;;5.75;5.75;;;;;24.40;32.44;101188.00;5082263;28;45422;-65
2022/05/14 17:53:17;;;;;;;;;3.75;3.75;;;;;24.38;32.39;101190.03;5082498;27;45619;-67
2022/05/14 17:55:42;;;;;;;;;5.25;5.00;;;;;24.33;32.88;101179.59;5081853;27;47025;-67
2022/05/14 17:58:13;;;;;;;;;7.00;5.25;;;;;24.29;32.44;101180.06;5087435;28;45286;-69
2022/05/14 18:00:39;;;;;;;;;5.50;5.50;;;;;24.22;32.97;101179.88;5091427;27;44853;-66
2022/05/14 18:03:08;;;;;;;;;5.25;5.25;;;;;24.21;32.95;101188.16;5082127;27;45575;-66
2022/05/14 18:05:37;;;;;;;;;6.75;5.75;;;;;24.19;32.66;101176.59;5085149;27;46430;-68
2022/05/14 18:08:03;;;;;;;;;6.00;5.00;;;;;24.20;32.69;101181.03;5081473;27;45734;-67
2022/05/14 18:10:28;;;;;;;;;4.00;4.00;;;;;24.15;32.63;101180.66;5082030;27;45441;-69
2022/05/14 18:12:55;;;;;;;;;4.50;4.50;;;;;24.10;32.76;101173.00;5082678;28;45453;-70
2022/05/14 18:15:22;;;;;;;;;5.25;5.25;;;;;24.11;32.84;101185.56;5077852;27;45430;-66
2022/05/14 18:17:47;;;;;;;;;5.00;5.00;;;;;24.02;32.87;101172.94;5083123;27;45234;-68
2022/05/14 18:20:18;;;;;;;;;4.00;4.00;;;;;23.87;32.93;101156.34;5082556;27;45260;-66
2022/05/14 18:22:45;;;;;;;;;5.25;5.25;;;;;23.92;32.78;101173.03;5088923;27;45344;-62
2022/05/14 18:25:14;;;;;;;;;6.25;6.25;;;;;23.85;32.79;101177.41;5088685;27;45097;-64
2022/05/14 18:27:47;;;;;;;;;9.75;6.75;;;;;23.85;32.91;101174.69;5083735;27;45231;-69
2022/05/14 18:30:18;;;;;;;;;5.00;5.00;;;;;23.81;33.13;101178.69;5078269;27;45640;-65
2022/05/14 18:32:58;;;;;;;;;4.25;4.25;;;;;23.80;32.81;101174.28;5073176;27;45494;-66
2022/05/14 18:35:27;;;;;;;;;6.25;4.75;;;;;23.72;32.96;101160.66;5079630;27;46140;-66
2022/05/14 18:37:56;;;;;;;;;5.50;5.50;;;;;23.78;33.17;101174.44;5084282;27;44877;-68
2022/05/14 18:40:24;;;;;;;;;7.25;5.75;;;;;23.73;33.11;101175.94;5087801;27;45241;-67
2022/05/14 18:42:52;;;;;;;;;6.50;5.25;;;;;23.65;33.19;101178.56;5085600;27;45450;-66
2022/05/14 18:45:19;;;;;;;;;7.00;6.00;;;;;23.54;32.91;101179.63;5093424;27;44985;-67
2022/05/14 18:47:45;;;;;;;;;7.00;7.00;;;;;23.52;33.22;101187.09;5089039;27;46444;-66
2022/05/14 18:50:10;;;;;;;;;4.00;4.00;;;;;23.45;33.50;101181.44;5086990;27;44884;-67
2022/05/14 18:52:38;;;;;;;;;5.00;5.00;;;;;23.37;33.69;101175.91;5087718;27;45570;-66
2022/05/14 18:55:04;;;;;;;;;8.00;7.00;;;;;23.32;33.31;101183.69;5084395;27;45309;-67
2022/05/14 18:57:30;;;;;;;;;5.00;5.00;;;;;23.33;33.67;101185.38;5085683;27;45485;-68
2022/05/14 18:59:55;;;;;;;;;12.67;12.67;;;;;23.28;34.03;101184.97;5080575;27;45188;-67
2022/05/14 19:02:21;;;;;;;;;11.33;10.00;;;;;23.23;33.95;101190.88;5077341;28;45842;-67
2022/05/14 19:07:30;;;;;;;;;4.67;4.67;;;;;23.09;34.46;101182.41;5089393;27;45773;-68
2022/05/14 19:09:58;;;;;;;;;6.67;4.67;;;;;23.05;34.29;101186.41;5090671;28;45819;-67
2022/05/14 19:12:24;;;;;;;;;5.50;4.25;;;;;23.00;34.50;101180.59;5093107;27;45785;-67
2022/05/14 19:14:50;;;;;;;;;5.00;3.00;;;;;22.94;34.34;101173.94;5087244;27;45168;-68
2022/05/14 19:17:19;;;;;;;;;7.00;5.50;;;;;22.87;34.52;101176.38;5086684;27;45866;-66
2022/05/14 19:19:46;;;;;;;;;4.00;4.00;;;;;22.84;34.23;101184.84;5091027;28;45333;-66
2022/05/14 19:22:12;;;;;;;;;4.25;4.25;;;;;22.74;34.81;101175.00;5084761;28;45455;-66
2022/05/14 19:24:39;;;;;;;;;8.00;6.75;;;;;22.73;34.40;101171.44;5071852;27;45516;-67
2022/05/14 19:27:06;;;;;;;;;5.00;5.00;;;;;22.72;34.96;101169.72;5072942;27;45440;-67
2022/05/14 19:29:32;;;;;;;;;7.00;4.67;;;;;22.69;34.76;101167.34;5078072;27;45446;-66
2022/05/14 19:31:57;;;;;;;;;4.33;4.33;;;;;22.63;34.72;101166.06;5083861;28;45323;-66
2022/05/14 19:34:22;;;;;;;;;1.00;1.00;;;;;22.61;34.56;101169.91;5092752;28;45449;-67
2022/05/14 19:36:53;;;;;;;;;6.00;6.00;;;;;22.59;34.51;101163.81;5090209;28;44757;-67
2022/05/14 19:39:22;;;;;;;;;9.00;7.00;;;;;22.59;35.08;101170.06;5086332;27;45423;-66
2022/05/14 19:41:56;;;;;;;;;6.33;6.00;;;;;22.56;34.96;101172.25;5082664;28;45511;-67
2022/05/14 19:44:46;;;;;;;;;7.00;7.00;;;;;22.50;35.16;101170.13;5087075;27;46426;-67
2022/05/14 19:47:13;;;;;;;;;7.67;7.67;;;;;22.50;34.84;101170.13;5080958;28;45373;-66
2022/05/14 19:49:39;;;;;;;;;10.25;9.00;;;;;22.48;34.67;101166.69;5085339;27;45474;-66
2022/05/14 19:52:07;;;;;;;;;12.33;10.67;;;;;22.45;34.74;101169.72;5082563;28;45417;-66
2022/05/14 19:54:34;;;;;;;;;11.00;9.33;;;;;22.41;34.55;101174.59;5082842;27;45425;-66
2022/05/14 19:57:01;;;;;;;;;8.67;8.67;;;;;22.35;34.29;101161.63;5091122;27;45335;-66
2022/05/14 19:59:26;;;;;;;;;7.00;7.00;;;;;22.36;34.92;101174.16;5087739;27;45290;-66
2022/05/14 20:01:52;;;;;;;;;7.33;7.33;;;;;22.32;34.56;101170.91;5082467;28;45890;-66
2022/05/14 20:04:18;;;;;;;;;7.50;7.50;;;;;22.23;34.71;101171.78;5084102;27;46192;-67
2022/05/14 20:06:43;;;;;;;;;8.33;8.33;;;;;22.28;34.74;101176.78;5081012;28;45772;-66
2022/05/14 20:09:10;;;;;;;;;10.00;9.67;;;;;22.26;34.60;101179.59;5086746;27;45446;-67
2022/05/14 20:11:36;;;;;;;;;8.00;7.33;;;;;22.25;34.65;101182.47;5090736;27;45442;-66
2022/05/14 20:14:07;;;;;;;;;8.67;8.67;;;;;22.22;34.54;101189.03;5091963;27;45039;-67
2022/05/14 20:22:02;;;;;;;;;7.67;7.67;;;;;22.15;34.93;101192.50;5091881;28;45365;-66
2022/05/14 20:24:28;;;;;;;;;11.00;10.00;;;;;22.07;34.60;101180.53;5095394;27;45345;-66
2022/05/14 20:26:53;;;;;;;;;11.00;10.67;;;;;22.11;35.17;101186.50;5079978;27;45864;-66
2022/05/14 20:29:19;;;;;;;;;10.67;8.00;;;;;22.09;35.10;101188.50;5079295;27;45839;-66
2022/05/14 20:31:44;;;;;;;;;10.33;9.00;;;;;22.08;35.01;101193.06;5080635;27;45366;-66
2022/05/14 20:34:11;;;;;;;;;12.00;12.00;;;;;22.04;35.00;101190.78;5077534;27;45569;-66
2022/05/14 20:36:37;;;;;;;;;13.33;11.00;;;;;22.00;35.36;101187.47;5078325;28;45314;-66
2022/05/14 20:39:03;;;;;;;;;11.33;11.33;;;;;21.99;35.51;101190.34;5078834;27;45256;-66
2022/05/14 20:41:29;;;;;;;;;11.67;11.67;;;;;21.97;35.10;101189.63;5077242;27;45503;-66
2022/05/14 20:43:55;;;;;;;;;15.33;13.33;;;;;21.94;35.58;101192.63;5093217;27;45431;-69
2022/05/14 20:46:20;;;;;;;;;15.00;13.00;;;;;21.95;35.64;101202.47;5077423;28;45421;-67
2022/05/14 20:48:46;;;;;;;;;15.00;15.00;;;;;21.89;35.88;101198.50;5077233;27;45409;-66
2022/05/14 20:51:11;;;;;;;;;14.00;11.67;;;;;21.87;35.70;101196.91;5075700;27;45714;-67
2022/05/14 20:53:37;;;;;;;;;13.33;11.67;;;;;21.84;35.64;101194.50;5078676;28;46145;-67
2022/05/14 20:56:03;;;;;;;;;10.00;7.67;;;;;21.78;36.18;101187.81;5077763;27;45337;-67
2022/05/14 20:58:29;;;;;;;;;12.00;12.00;;;;;21.79;36.22;101190.38;5078402;27;45366;-66
2022/05/14 21:00:54;;;;;;;;;10.33;9.00;;;;;21.79;36.42;101187.66;5072697;27;45697;-67
2022/05/14 21:03:19;;;;;;;;;11.00;11.00;;;;;21.80;36.40;101185.81;5078371;28;45352;-66
2022/05/14 21:05:46;;;;;;;;;15.67;13.00;;;;;21.77;35.70;101177.97;5076673;28;45385;-67
2022/05/14 21:08:11;;;;;;;;;10.33;10.33;;;;;21.74;36.11;101181.81;5078539;27;45417;-66
2022/05/14 21:10:38;;;;;;;;;14.00;14.00;;;;;21.77;36.21;101180.69;5077369;28;45363;-66
2022/05/14 21:13:11;;;;;;;;;13.00;13.00;;;;;21.73;35.99;101171.97;5072479;27;45354;-65
2022/05/14 21:15:37;;;;;;;;;12.67;12.33;;;;;21.71;36.06;101171.28;5065920;28;45607;-65
2022/05/14 21:18:03;;;;;;;;;16.00;11.67;;;;;21.67;36.26;101169.00;5077897;27;45536;-69
2022/05/14 21:20:29;;;;;;;;;12.00;12.00;;;;;21.66;36.57;101165.44;5077459;27;45374;-65
2022/05/14 21:22:56;;;;;;;;;14.00;12.33;;;;;21.63;36.21;101164.88;5057029;27;46783;-69
2022/05/14 21:25:24;;;;;;;;;13.33;13.33;;;;;21.62;36.28;101157.78;5067819;27;45238;-66
2022/05/14 21:27:50;;;;;;;;;12.67;11.33;;;;;21.61;36.61;101153.31;5076427;28;45279;-67
2022/05/14 21:30:17;;;;;;;;;11.33;10.00;;;;;21.58;36.42;101157.19;5093082;27;45549;-66
2022/05/14 21:32:44;;;;;;;;;9.00;9.00;;;;;21.52;36.44;101151.50;5077846;27;45566;-66
2022/05/14 21:37:58;;;;;;;;;12.00;10.67;;;;;21.49;36.93;101150.78;5077119;28;45455;-67
2022/05/14 21:40:29;;;;;;;;;11.00;10.00;;;;;21.47;36.79;101154.63;5075756;28;45544;-66
2022/05/14 21:42:58;;;;;;;;;13.00;10.00;;;;;21.43;36.52;101153.19;5079610;27;47056;-66
2022/05/14 21:45:30;;;;;;;;;12.67;10.00;;;;;21.38;36.96;101145.53;5075834;27;45325;-66
2022/05/14 21:47:56;;;;;;;;;12.67;11.00;;;;;21.37;37.10;101154.63;5077735;27;45270;-66
2022/05/14 21:50:22;;;;;;;;;10.33;8.67;;;;;21.30;37.07;101139.97;5077129;27;45568;-67
2022/05/14 21:52:50;;;;;;;;;11.33;9.00;;;;;21.28;37.19;101141.09;5077310;27;45467;-67
2022/05/14 21:55:19;;;;;;;;;10.00;10.00;;;;;21.25;37.57;101158.47;5064949;27;45398;-68
2022/05/14 21:57:44;;;;;;;;;11.00;9.33;;;;;21.19;37.44;101149.03;5077667;27;45469;-67
2022/05/14 22:00:19;;;;;;;;;11.33;10.00;;;;;21.21;37.48;101154.28;5076999;28;45558;-67
2022/05/14 22:02:49;;;;;;;;;9.00;8.00;;;;;21.17;37.32;101156.44;5070584;27;45410;-66
2022/05/14 22:05:23;;;;;;;;;9.33;9.33;;;;;21.11;37.45;101143.47;5076366;27;45517;-66
2022/05/14 22:07:49;;;;;;;;;9.33;9.00;;;;;21.15;37.61;101161.13;5077227;27;45340;-67
2022/05/14 22:10:15;;;;;;;;;10.00;9.00;;;;;21.13;37.66;101162.28;5075098;27;45531;-65
2022/05/14 22:12:41;;;;;;;;;12.00;11.00;;;;;21.15;38.46;101160.28;5075888;27;46193;-67
2022/05/14 22:15:09;;;;;;;;;11.33;10.67;;;;;21.15;38.75;101149.44;5073888;27;45489;-66
2022/05/14 22:17:35;;;;;;;;;7.67;7.67;;;;;21.18;37.83;101149.16;5067481;27;45382;-68